»·PEaware :: N123SX TBPB-TNCM

N123SX :: TBPB-TNCM

FLIGHT INFORMATION

Flight Status: Arrived
Operator: Privately registered:
United States
More flights under this callsign
Pilot: Shawn G. (7208)
Aircraft: MCDONNELL-DOUGLAS MD-88
(MD88)
More flights by this aircraft type
Origin: TBPB Grantley Adams Intl
Barbados
Destination: TNCM Princess Juliana Intl
Netherlands Antilles
More flights between these airports :: More routes between these airports
Route: C1 TIBOT ANU UB520 ELOPO ULUBA1
File this flight plan on PilotEdge
Remarks:
Altitude:
(Current/Filed)
34,000ft
Speed:
(Current/Filed)
450kts
Departed: 26-May-17 06:44 PM
Arrived: 26-May-17 07:59 PM
Distance/Time
Traveled:
364nm/1:15
Distance/Time
To Go:
Arrived

Flight Plot

Page will automatically refresh every two minutes.

Flight plan parsing failed; only flown route is shown


Map Options




Map Legend


Flown Route
Filed Route
Departure Airport
Arrival Airport
Navaid (VOR, NDB)
Fix

Horizontal Profiles

Position Reports

Time Latitude Longitude Heading Altitude Ground
Speed
26-May-17 18:11 13.079825 -59.483984 346 175ft 0kts
26-May-17 18:12 13.079825 -59.483984 346 175ft 0kts
26-May-17 18:13 13.079825 -59.483984 346 175ft 0kts
26-May-17 18:14 13.079825 -59.483984 346 175ft 0kts
26-May-17 18:15 13.079825 -59.483984 346 175ft 0kts
26-May-17 18:16 13.079825 -59.483984 346 175ft 0kts
26-May-17 18:17 13.079825 -59.483984 346 175ft 0kts
26-May-17 18:18 13.079825 -59.483984 346 175ft 0kts
26-May-17 18:19 13.079825 -59.483984 346 175ft 0kts
26-May-17 18:20 13.079825 -59.483984 346 175ft 0kts
26-May-17 18:21 13.079825 -59.483984 346 175ft 0kts
26-May-17 18:22 13.079825 -59.483984 346 175ft 0kts
26-May-17 18:23 13.079825 -59.483984 346 175ft 0kts
26-May-17 18:24 13.079825 -59.483984 346 175ft 0kts
26-May-17 18:25 13.079825 -59.483984 346 175ft 0kts
26-May-17 18:26 13.079590 -59.483882 345 175ft 0kts
26-May-17 18:27 13.079119 -59.483650 345 175ft 0kts
26-May-17 18:28 13.078721 -59.483451 345 175ft 0kts
26-May-17 18:29 13.078721 -59.483451 345 175ft 0kts
26-May-17 18:30 13.078721 -59.483451 345 175ft 0kts
26-May-17 18:31 13.078721 -59.483451 345 175ft 0kts
26-May-17 18:32 13.078721 -59.483451 345 175ft 0kts
26-May-17 18:33 13.078721 -59.483451 345 175ft 0kts
26-May-17 18:34 13.078721 -59.483451 345 175ft 0kts
26-May-17 18:35 13.078721 -59.483451 345 175ft 0kts
26-May-17 18:36 13.078721 -59.483451 345 175ft 0kts
26-May-17 18:37 13.078721 -59.483451 345 175ft 0kts
26-May-17 18:38 13.078721 -59.483451 345 175ft 0kts
26-May-17 18:39 13.078290 -59.485143 255 175ft 18kts
26-May-17 18:40 13.077231 -59.488468 253 175ft 13kts
26-May-17 18:41 13.075944 -59.493680 255 175ft 17kts
26-May-17 18:42 13.074536 -59.499407 256 175ft 20kts
26-May-17 18:43 13.073202 -59.504804 256 175ft 16kts
26-May-17 18:44 13.072333 -59.507184 198 175ft 1kts
26-May-17 18:45 13.071140 -59.506413 72 175ft 5kts
26-May-17 18:46 13.076576 -59.483934 76 252ft 167kts
26-May-17 18:47 13.087489 -59.439111 74 2196ft 185kts
26-May-17 18:48 13.101029 -59.385559 75 3574ft 218kts
26-May-17 18:49 13.125657 -59.332114 28 4486ft 286kts
26-May-17 18:50 13.192672 -59.365256 289 7995ft 265kts
26-May-17 18:51 13.217155 -59.438684 285 10205ft 302kts
26-May-17 18:52 13.239526 -59.512676 285 12071ft 336kts
26-May-17 18:53 13.267444 -59.606003 285 14842ft 350kts
26-May-17 18:54 13.301303 -59.719145 285 17763ft 365kts
26-May-17 18:55 13.326403 -59.802904 285 19627ft 376kts
26-May-17 18:56 13.357591 -59.906902 285 21673ft 389kts
26-May-17 18:57 13.395380 -60.032638 285 23842ft 402kts
26-May-17 18:58 13.423176 -60.125039 285 25272ft 411kts
26-May-17 18:59 13.457314 -60.238357 285 26815ft 422kts
26-May-17 19:00 13.492430 -60.354755 285 28521ft 435kts
26-May-17 19:01 13.528293 -60.473384 286 31305ft 435kts
26-May-17 19:02 13.577345 -60.584138 315 33830ft 436kts
26-May-17 19:03 13.690169 -60.629727 339 34074ft 443kts
26-May-17 19:04 13.806450 -60.668980 338 34077ft 443kts
26-May-17 19:05 13.923059 -60.708695 338 34078ft 443kts
26-May-17 19:06 14.039676 -60.748424 338 34077ft 443kts
26-May-17 19:07 14.156271 -60.788150 338 34076ft 443kts
26-May-17 19:08 14.272587 -60.827782 338 34102ft 443kts
26-May-17 19:09 14.389483 -60.867614 338 34103ft 443kts
26-May-17 19:10 14.506068 -60.907342 338 34103ft 443kts
26-May-17 19:11 14.622633 -60.947065 338 34103ft 443kts
26-May-17 19:12 14.739463 -60.986881 338 34102ft 443kts
26-May-17 19:13 14.856160 -61.026651 338 34102ft 443kts
26-May-17 19:14 14.972503 -61.066303 338 34102ft 443kts
26-May-17 19:15 15.089324 -61.106127 338 34047ft 442kts
26-May-17 19:16 15.205630 -61.145760 338 34047ft 443kts
26-May-17 19:17 15.322272 -61.185516 338 34047ft 443kts
26-May-17 19:18 15.438678 -61.225191 338 34095ft 443kts
26-May-17 19:19 15.555197 -61.264908 338 34100ft 443kts
26-May-17 19:20 15.671761 -61.304639 338 34100ft 443kts
26-May-17 19:21 15.788924 -61.344581 338 34099ft 443kts
26-May-17 19:22 15.904958 -61.384124 338 34100ft 443kts
26-May-17 19:23 16.021771 -61.423937 338 34100ft 443kts
26-May-17 19:24 16.100028 -61.450611 338 34100ft 443kts
26-May-17 19:25 16.100028 -61.450611 338 34100ft 443kts
26-May-17 19:26 16.208302 -61.487509 338 34098ft 443kts
26-May-17 19:27 16.325210 -61.527354 338 34098ft 443kts
26-May-17 19:28 16.442442 -61.567293 338 34107ft 445kts
26-May-17 19:29 16.559192 -61.607097 338 34098ft 443kts
26-May-17 19:30 16.675958 -61.646888 338 34125ft 444kts
26-May-17 19:31 16.792531 -61.686610 338 34131ft 443kts
26-May-17 19:32 16.909397 -61.726431 338 34131ft 443kts
26-May-17 19:33 17.026469 -61.766321 338 34131ft 443kts
26-May-17 19:34 17.137210 -61.816740 314 33919ft 435kts
26-May-17 19:35 17.206697 -61.916013 303 31771ft 420kts
26-May-17 19:36 17.274327 -62.013760 303 29630ft 414kts
26-May-17 19:37 17.341562 -62.110641 303 27478ft 413kts
26-May-17 19:38 17.408190 -62.206586 303 25299ft 407kts
26-May-17 19:39 17.474002 -62.301301 303 23168ft 399kts
26-May-17 19:40 17.538478 -62.394033 303 21143ft 389kts
26-May-17 19:41 17.600761 -62.483555 303 19311ft 375kts
26-May-17 19:42 17.659498 -62.569672 293 17816ft 352kts
26-May-17 19:43 17.690526 -62.664251 287 16279ft 342kts
26-May-17 19:44 17.722757 -62.756790 287 14767ft 334kts
26-May-17 19:45 17.754433 -62.847248 287 13283ft 327kts
26-May-17 19:46 17.785256 -62.935164 287 11828ft 316kts
26-May-17 19:47 17.814914 -63.019619 287 10423ft 303kts
26-May-17 19:48 17.843521 -63.100991 288 9072ft 292kts
26-May-17 19:49 17.870734 -63.178325 287 7730ft 265kts
26-May-17 19:50 17.895220 -63.247954 288 6576ft 251kts
26-May-17 19:51 17.919165 -63.315870 288 5479ft 246kts
26-May-17 19:52 17.942794 -63.382838 288 4404ft 243kts
26-May-17 19:53 17.984283 -63.432564 357 3366ft 259kts
26-May-17 19:54 18.017769 -63.382016 118 2685ft 232kts
26-May-17 19:55 18.011760 -63.326933 82 1916ft 177kts
26-May-17 19:56 18.016914 -63.279681 82 1558ft 140kts
26-May-17 19:57 18.022187 -63.238376 82 1584ft 143kts
26-May-17 19:58 18.027405 -63.197736 81 1489ft 144kts
26-May-17 19:59 18.034336 -63.156772 78 727ft 141kts
26-May-17 20:00 18.039883 -63.116024 81 7ft 126kts
26-May-17 20:01 18.041393 -63.105152 295 6ft 3kts
26-May-17 20:02 18.040888 -63.109257 261 6ft 15kts
26-May-17 20:03 18.041500 -63.111616 262 6ft 13kts
26-May-17 20:04 18.042700 -63.112924 57 6ft 10kts
26-May-17 20:05 18.043488 -63.112368 353 6ft 0kts
26-May-17 20:07 18.043488 -63.112368 353 6ft 0kts
26-May-17 20:08 18.043488 -63.112368 353 6ft 0kts
26-May-17 20:09 18.037099 -63.135835 81 321ft 141kts
26-May-17 20:10 18.041105 -63.106741 81 6ft 24kts
26-May-17 20:11 18.041282 -63.106574 262 6ft 22kts
26-May-17 20:12 18.041625 -63.110285 289 6ft 6kts
26-May-17 20:13 18.043488 -63.112368 353 6ft 0kts
26-May-17 20:14 18.043488 -63.112368 353 6ft 0kts
26-May-17 20:15 18.043488 -63.112368 353 6ft 0kts

Navigation Log

Ident Type
Flight plan parsing failed, navigation log unavailable